sensor_id;sensor_type;location;lat;lon;timestamp;P1;durP1;ratioP1;P2;durP2;ratioP2
466;SDS011;72290;48.808;9.222;2024-02-21T06:02:11;24.00;;;8.80;;
466;SDS011;72290;48.808;9.222;2024-02-21T06:04:37;11.97;;;6.40;;
466;SDS011;72290;48.808;9.222;2024-02-21T06:07:04;15.77;;;5.50;;
466;SDS011;72290;48.808;9.222;2024-02-21T06:09:30;18.00;;;6.43;;
466;SDS011;72290;48.808;9.222;2024-02-21T06:11:57;17.50;;;6.23;;
466;SDS011;72290;48.808;9.222;2024-02-21T06:14:23;16.73;;;6.63;;
466;SDS011;72290;48.808;9.222;2024-02-21T06:16:48;26.53;;;7.03;;
466;SDS011;72290;48.808;9.222;2024-02-21T06:19:14;22.30;;;6.93;;
466;SDS011;72290;48.808;9.222;2024-02-21T06:21:40;20.23;;;6.37;;
466;SDS011;72290;48.808;9.222;2024-02-21T06:24:06;17.77;;;5.67;;
466;SDS011;72290;48.808;9.222;2024-02-21T06:26:32;29.23;;;6.77;;
466;SDS011;72290;48.808;9.222;2024-02-21T06:28:58;15.53;;;6.40;;
466;SDS011;72290;48.808;9.222;2024-02-21T06:31:25;13.90;;;5.47;;
466;SDS011;72290;48.808;9.222;2024-02-21T06:33:51;22.20;;;6.20;;
466;SDS011;72290;48.808;9.222;2024-02-21T06:36:17;14.30;;;5.03;;
466;SDS011;72290;48.808;9.222;2024-02-21T06:38:42;13.30;;;6.60;;
466;SDS011;72290;48.808;9.222;2024-02-21T06:41:18;17.20;;;4.93;;
466;SDS011;72290;48.808;9.222;2024-02-21T06:43:47;26.53;;;5.63;;
466;SDS011;72290;48.808;9.222;2024-02-21T06:46:26;13.97;;;5.33;;
466;SDS011;72290;48.808;9.222;2024-02-21T06:48:53;20.63;;;6.27;;
466;SDS011;72290;48.808;9.222;2024-02-21T06:51:21;19.50;;;5.07;;
466;SDS011;72290;48.808;9.222;2024-02-21T06:53:47;18.73;;;5.73;;
466;SDS011;72290;48.808;9.222;2024-02-21T06:56:13;15.50;;;4.90;;
466;SDS011;72290;48.808;9.222;2024-02-21T06:58:39;14.93;;;4.70;;
466;SDS011;72290;48.808;9.222;2024-02-21T07:01:05;15.60;;;5.20;;
466;SDS011;72290;48.808;9.222;2024-02-21T07:03:31;11.90;;;4.40;;
466;SDS011;72290;48.808;9.222;2024-02-21T07:05:57;15.53;;;4.77;;
466;SDS011;72290;48.808;9.222;2024-02-21T07:08:23;13.00;;;5.23;;
466;SDS011;72290;48.808;9.222;2024-02-21T07:10:49;14.80;;;4.70;;
466;SDS011;72290;48.808;9.222;2024-02-21T07:13:15;13.83;;;4.57;;
466;SDS011;72290;48.808;9.222;2024-02-21T07:15:42;10.03;;;4.00;;
466;SDS011;72290;48.808;9.222;2024-02-21T07:18:08;20.87;;;5.33;;
466;SDS011;72290;48.808;9.222;2024-02-21T07:20:34;16.77;;;5.93;;
466;SDS011;72290;48.808;9.222;2024-02-21T07:23:02;33.43;;;6.93;;
466;SDS011;72290;48.808;9.222;2024-02-21T07:25:28;12.83;;;5.23;;
466;SDS011;72290;48.808;9.222;2024-02-21T07:27:54;21.57;;;6.40;;
466;SDS011;72290;48.808;9.222;2024-02-21T07:30:20;22.17;;;4.83;;
466;SDS011;72290;48.808;9.222;2024-02-21T07:32:48;26.37;;;5.40;;
466;SDS011;72290;48.808;9.222;2024-02-21T07:35:15;7.80;;;3.80;;
466;SDS011;72290;48.808;9.222;2024-02-21T07:37:41;15.17;;;4.77;;
466;SDS011;72290;48.808;9.222;2024-02-21T07:40:12;12.10;;;5.27;;
466;SDS011;72290;48.808;9.222;2024-02-21T07:42:38;15.93;;;6.03;;
466;SDS011;72290;48.808;9.222;2024-02-21T07:45:04;17.77;;;5.17;;
466;SDS011;72290;48.808;9.222;2024-02-21T07:47:30;25.03;;;6.27;;
466;SDS011;72290;48.808;9.222;2024-02-21T07:49:56;13.23;;;4.77;;
466;SDS011;72290;48.808;9.222;2024-02-21T07:52:22;21.23;;;5.83;;
466;SDS011;72290;48.808;9.222;2024-02-21T07:54:48;16.83;;;4.57;;
466;SDS011;72290;48.808;9.222;2024-02-21T07:57:14;13.87;;;4.43;;
466;SDS011;72290;48.808;9.222;2024-02-21T07:59:40;19.50;;;4.40;;
466;SDS011;72290;48.808;9.222;2024-02-21T08:02:06;8.77;;;4.13;;
466;SDS011;72290;48.808;9.222;2024-02-21T08:04:32;10.27;;;3.77;;
466;SDS011;72290;48.808;9.222;2024-02-21T08:06:58;10.13;;;4.60;;
466;SDS011;72290;48.808;9.222;2024-02-21T08:09:27;15.10;;;4.80;;
466;SDS011;72290;48.808;9.222;2024-02-21T08:11:53;9.83;;;4.37;;
466;SDS011;72290;48.808;9.222;2024-02-21T08:14:19;17.50;;;4.40;;
466;SDS011;72290;48.808;9.222;2024-02-21T08:16:45;15.70;;;4.87;;
466;SDS011;72290;48.808;9.222;2024-02-21T08:19:11;12.67;;;4.70;;
466;SDS011;72290;48.808;9.222;2024-02-21T08:21:37;8.20;;;3.10;;
466;SDS011;72290;48.808;9.222;2024-02-21T08:24:03;11.20;;;3.63;;
466;SDS011;72290;48.808;9.222;2024-02-21T08:26:29;8.77;;;3.00;;
466;SDS011;72290;48.808;9.222;2024-02-21T08:28:56;7.53;;;3.10;;
466;SDS011;72290;48.808;9.222;2024-02-21T08:31:26;13.60;;;3.03;;
466;SDS011;72290;48.808;9.222;2024-02-21T08:33:58;12.90;;;3.90;;
466;SDS011;72290;48.808;9.222;2024-02-21T08:36:28;8.03;;;3.60;;
466;SDS011;72290;48.808;9.222;2024-02-21T08:38:54;8.23;;;3.77;;
466;SDS011;72290;48.808;9.222;2024-02-21T08:41:20;14.50;;;4.37;;
466;SDS011;72290;48.808;9.222;2024-02-21T08:43:48;11.27;;;3.60;;
466;SDS011;72290;48.808;9.222;2024-02-21T08:46:14;8.60;;;3.20;;
466;SDS011;72290;48.808;9.222;2024-02-21T08:48:40;8.63;;;3.00;;
466;SDS011;72290;48.808;9.222;2024-02-21T08:51:06;12.20;;;4.60;;
466;SDS011;72290;48.808;9.222;2024-02-21T08:53:32;6.83;;;2.80;;
466;SDS011;72290;48.808;9.222;2024-02-21T08:55:58;9.10;;;3.23;;
466;SDS011;72290;48.808;9.222;2024-02-21T08:58:24;16.10;;;3.50;;
466;SDS011;72290;48.808;9.222;2024-02-21T09:00:51;6.10;;;3.13;;
466;SDS011;72290;48.808;9.222;2024-02-21T09:03:17;9.00;;;3.00;;
466;SDS011;72290;48.808;9.222;2024-02-21T09:05:45;5.97;;;2.80;;
466;SDS011;72290;48.808;9.222;2024-02-21T09:08:11;9.70;;;3.60;;
466;SDS011;72290;48.808;9.222;2024-02-21T09:10:38;12.80;;;3.40;;
466;SDS011;72290;48.808;9.222;2024-02-21T09:13:05;7.80;;;3.00;;
466;SDS011;72290;48.808;9.222;2024-02-21T09:15:32;10.20;;;3.30;;
466;SDS011;72290;48.808;9.222;2024-02-21T09:17:58;8.20;;;2.93;;
466;SDS011;72290;48.808;9.222;2024-02-21T09:20:24;9.50;;;3.03;;
466;SDS011;72290;48.808;9.222;2024-02-21T09:22:50;6.60;;;2.37;;
466;SDS011;72290;48.808;9.222;2024-02-21T09:25:17;5.40;;;2.73;;
466;SDS011;72290;48.808;9.222;2024-02-21T09:27:43;6.03;;;3.03;;
466;SDS011;72290;48.808;9.222;2024-02-21T09:30:10;12.43;;;3.03;;
466;SDS011;72290;48.808;9.222;2024-02-21T09:32:36;6.73;;;3.63;;
466;SDS011;72290;48.808;9.222;2024-02-21T09:35:02;10.97;;;3.20;;
466;SDS011;72290;48.808;9.222;2024-02-21T09:37:28;13.40;;;3.80;;
466;SDS011;72290;48.808;9.222;2024-02-21T09:39:54;6.17;;;2.87;;
466;SDS011;72290;48.808;9.222;2024-02-21T09:42:20;9.27;;;3.20;;
466;SDS011;72290;48.808;9.222;2024-02-21T09:44:48;7.60;;;3.90;;
466;SDS011;72290;48.808;9.222;2024-02-21T09:47:19;9.00;;;3.00;;
466;SDS011;72290;48.808;9.222;2024-02-21T09:49:45;6.90;;;3.33;;
466;SDS011;72290;48.808;9.222;2024-02-21T09:52:11;5.50;;;3.20;;
466;SDS011;72290;48.808;9.222;2024-02-21T09:54:39;9.73;;;3.70;;
466;SDS011;72290;48.808;9.222;2024-02-21T09:57:06;12.30;;;3.17;;
466;SDS011;72290;48.808;9.222;2024-02-21T09:59:32;11.37;;;3.40;;
466;SDS011;72290;48.808;9.222;2024-02-21T10:01:58;17.90;;;3.60;;
466;SDS011;72290;48.808;9.222;2024-02-21T10:04:25;9.73;;;3.30;;
466;SDS011;72290;48.808;9.222;2024-02-21T10:06:51;11.40;;;2.40;;
466;SDS011;72290;48.808;9.222;2024-02-21T10:09:21;15.87;;;3.17;;
466;SDS011;72290;48.808;9.222;2024-02-21T10:11:48;11.20;;;2.50;;
466;SDS011;72290;48.808;9.222;2024-02-21T10:14:14;6.87;;;2.77;;
466;SDS011;72290;48.808;9.222;2024-02-21T10:16:40;7.80;;;3.17;;
466;SDS011;72290;48.808;9.222;2024-02-21T10:19:15;3.87;;;2.60;;
466;SDS011;72290;48.808;9.222;2024-02-21T10:21:41;4.40;;;2.80;;
466;SDS011;72290;48.808;9.222;2024-02-21T10:24:07;4.00;;;2.10;;
466;SDS011;72290;48.808;9.222;2024-02-21T10:26:35;8.10;;;2.60;;
466;SDS011;72290;48.808;9.222;2024-02-21T10:29:02;8.73;;;3.37;;
466;SDS011;72290;48.808;9.222;2024-02-21T10:31:28;9.53;;;3.33;;
466;SDS011;72290;48.808;9.222;2024-02-21T10:33:54;12.00;;;3.00;;
466;SDS011;72290;48.808;9.222;2024-02-21T10:36:21;4.67;;;2.43;;
466;SDS011;72290;48.808;9.222;2024-02-21T10:38:47;6.20;;;2.30;;
466;SDS011;72290;48.808;9.222;2024-02-21T10:41:16;9.67;;;2.83;;
466;SDS011;72290;48.808;9.222;2024-02-21T10:43:43;9.40;;;2.90;;
466;SDS011;72290;48.808;9.222;2024-02-21T10:46:12;8.00;;;3.37;;
466;SDS011;72290;48.808;9.222;2024-02-21T10:48:41;13.47;;;3.13;;
466;SDS011;72290;48.808;9.222;2024-02-21T10:51:15;5.83;;;2.73;;
466;SDS011;72290;48.808;9.222;2024-02-21T10:54:35;6.93;;;3.10;;
466;SDS011;72290;48.808;9.222;2024-02-21T10:56:31;6.43;;;2.93;;
466;SDS011;72290;48.808;9.222;2024-02-21T10:59:02;7.73;;;2.80;;
466;SDS011;72290;48.808;9.222;2024-02-21T11:01:28;9.40;;;3.13;;
466;SDS011;72290;48.808;9.222;2024-02-21T11:03:57;5.10;;;2.23;;
466;SDS011;72290;48.808;9.222;2024-02-21T11:06:24;10.87;;;2.30;;
466;SDS011;72290;48.808;9.222;2024-02-21T11:09:03;4.50;;;2.67;;
466;SDS011;72290;48.808;9.222;2024-02-21T11:11:30;6.80;;;2.97;;
466;SDS011;72290;48.808;9.222;2024-02-21T11:14:05;8.93;;;3.00;;
466;SDS011;72290;48.808;9.222;2024-02-21T11:16:34;6.40;;;2.63;;
466;SDS011;72290;48.808;9.222;2024-02-21T11:19:04;3.47;;;2.37;;
466;SDS011;72290;48.808;9.222;2024-02-21T11:21:34;6.47;;;2.80;;
466;SDS011;72290;48.808;9.222;2024-02-21T11:24:03;9.03;;;3.83;;
466;SDS011;72290;48.808;9.222;2024-02-21T11:26:30;6.00;;;2.87;;
466;SDS011;72290;48.808;9.222;2024-02-21T11:29:00;9.87;;;3.10;;
466;SDS011;72290;48.808;9.222;2024-02-21T11:31:27;8.73;;;2.83;;
466;SDS011;72290;48.808;9.222;2024-02-21T11:34:03;7.33;;;3.20;;
466;SDS011;72290;48.808;9.222;2024-02-21T11:36:29;8.00;;;2.53;;
466;SDS011;72290;48.808;9.222;2024-02-21T11:39:02;5.40;;;2.90;;
466;SDS011;72290;48.808;9.222;2024-02-21T11:41:29;4.17;;;2.67;;
466;SDS011;72290;48.808;9.222;2024-02-21T11:43:55;10.70;;;2.70;;
466;SDS011;72290;48.808;9.222;2024-02-21T11:46:21;6.70;;;2.60;;
466;SDS011;72290;48.808;9.222;2024-02-21T11:48:48;10.40;;;2.90;;
466;SDS011;72290;48.808;9.222;2024-02-21T11:51:26;3.90;;;2.30;;
466;SDS011;72290;48.808;9.222;2024-02-21T11:53:52;6.13;;;2.33;;
466;SDS011;72290;48.808;9.222;2024-02-21T11:56:19;7.00;;;2.80;;
466;SDS011;72290;48.808;9.222;2024-02-21T11:58:48;8.10;;;2.77;;
466;SDS011;72290;48.808;9.222;2024-02-21T12:01:14;5.80;;;3.33;;
466;SDS011;72290;48.808;9.222;2024-02-21T12:03:40;5.20;;;2.80;;
466;SDS011;72290;48.808;9.222;2024-02-21T12:06:07;5.43;;;2.40;;
466;SDS011;72290;48.808;9.222;2024-02-21T12:08:42;6.93;;;2.37;;
466;SDS011;72290;48.808;9.222;2024-02-21T12:11:18;8.90;;;2.70;;
466;SDS011;72290;48.808;9.222;2024-02-21T12:13:44;8.47;;;2.37;;
466;SDS011;72290;48.808;9.222;2024-02-21T12:16:12;9.50;;;2.70;;
466;SDS011;72290;48.808;9.222;2024-02-21T12:18:38;8.37;;;2.10;;
466;SDS011;72290;48.808;9.222;2024-02-21T12:21:04;9.33;;;3.07;;
466;SDS011;72290;48.808;9.222;2024-02-21T12:23:30;15.63;;;2.30;;
466;SDS011;72290;48.808;9.222;2024-02-21T12:25:58;10.80;;;3.37;;
466;SDS011;72290;48.808;9.222;2024-02-21T12:28:24;5.83;;;2.50;;
466;SDS011;72290;48.808;9.222;2024-02-21T12:30:51;5.70;;;2.60;;
466;SDS011;72290;48.808;9.222;2024-02-21T12:33:17;5.07;;;2.27;;
466;SDS011;72290;48.808;9.222;2024-02-21T12:35:43;4.90;;;2.60;;
466;SDS011;72290;48.808;9.222;2024-02-21T12:38:09;4.70;;;2.07;;
466;SDS011;72290;48.808;9.222;2024-02-21T12:40:36;9.17;;;2.50;;
466;SDS011;72290;48.808;9.222;2024-02-21T12:43:02;14.50;;;3.03;;
466;SDS011;72290;48.808;9.222;2024-02-21T12:45:28;10.33;;;2.23;;
466;SDS011;72290;48.808;9.222;2024-02-21T12:47:54;8.13;;;2.40;;
466;SDS011;72290;48.808;9.222;2024-02-21T12:50:20;6.63;;;3.80;;
466;SDS011;72290;48.808;9.222;2024-02-21T12:52:47;3.90;;;1.83;;
466;SDS011;72290;48.808;9.222;2024-02-21T12:55:14;5.50;;;2.50;;
466;SDS011;72290;48.808;9.222;2024-02-21T12:57:41;5.43;;;2.30;;
466;SDS011;72290;48.808;9.222;2024-02-21T13:00:07;7.50;;;2.10;;
466;SDS011;72290;48.808;9.222;2024-02-21T13:02:34;6.97;;;1.97;;
466;SDS011;72290;48.808;9.222;2024-02-21T13:05:00;3.03;;;1.80;;
466;SDS011;72290;48.808;9.222;2024-02-21T13:07:27;4.17;;;1.90;;
466;SDS011;72290;48.808;9.222;2024-02-21T13:09:53;4.50;;;1.80;;
466;SDS011;72290;48.808;9.222;2024-02-21T13:12:19;4.80;;;1.93;;
466;SDS011;72290;48.808;9.222;2024-02-21T13:14:45;5.37;;;2.00;;
466;SDS011;72290;48.808;9.222;2024-02-21T13:17:11;8.57;;;2.90;;
466;SDS011;72290;48.808;9.222;2024-02-21T13:19:37;5.70;;;2.73;;
466;SDS011;72290;48.808;9.222;2024-02-21T13:22:03;4.17;;;2.10;;
466;SDS011;72290;48.808;9.222;2024-02-21T13:24:30;3.70;;;1.77;;
466;SDS011;72290;48.808;9.222;2024-02-21T13:26:56;3.40;;;2.23;;
466;SDS011;72290;48.808;9.222;2024-02-21T13:29:22;4.67;;;1.83;;
466;SDS011;72290;48.808;9.222;2024-02-21T13:31:48;7.13;;;2.80;;
466;SDS011;72290;48.808;9.222;2024-02-21T13:34:15;4.10;;;1.80;;
466;SDS011;72290;48.808;9.222;2024-02-21T13:36:42;6.63;;;2.87;;
466;SDS011;72290;48.808;9.222;2024-02-21T13:39:08;4.27;;;1.93;;
466;SDS011;72290;48.808;9.222;2024-02-21T13:41:37;6.90;;;2.27;;
466;SDS011;72290;48.808;9.222;2024-02-21T13:44:03;7.17;;;1.53;;
466;SDS011;72290;48.808;9.222;2024-02-21T13:46:29;5.90;;;1.90;;
466;SDS011;72290;48.808;9.222;2024-02-21T13:49:02;2.73;;;1.80;;
466;SDS011;72290;48.808;9.222;2024-02-21T13:51:32;7.17;;;2.07;;
466;SDS011;72290;48.808;9.222;2024-02-21T13:53:58;3.53;;;1.50;;
466;SDS011;72290;48.808;9.222;2024-02-21T13:56:24;5.73;;;2.20;;
466;SDS011;72290;48.808;9.222;2024-02-21T13:58:50;3.67;;;1.97;;
466;SDS011;72290;48.808;9.222;2024-02-21T14:01:16;4.53;;;2.13;;
466;SDS011;72290;48.808;9.222;2024-02-21T14:03:43;2.73;;;1.87;;
466;SDS011;72290;48.808;9.222;2024-02-21T14:06:09;3.07;;;1.90;;
466;SDS011;72290;48.808;9.222;2024-02-21T14:08:35;4.80;;;2.10;;
466;SDS011;72290;48.808;9.222;2024-02-21T14:11:02;6.53;;;1.77;;
466;SDS011;72290;48.808;9.222;2024-02-21T14:13:28;5.50;;;2.17;;
466;SDS011;72290;48.808;9.222;2024-02-21T14:15:53;4.57;;;2.47;;
466;SDS011;72290;48.808;9.222;2024-02-21T14:18:19;5.93;;;2.23;;
466;SDS011;72290;48.808;9.222;2024-02-21T14:20:46;3.00;;;1.67;;
466;SDS011;72290;48.808;9.222;2024-02-21T14:23:12;4.70;;;1.83;;
466;SDS011;72290;48.808;9.222;2024-02-21T14:25:38;4.43;;;2.03;;
466;SDS011;72290;48.808;9.222;2024-02-21T14:28:05;6.53;;;2.03;;
466;SDS011;72290;48.808;9.222;2024-02-21T14:30:31;6.50;;;2.10;;
466;SDS011;72290;48.808;9.222;2024-02-21T14:32:57;5.07;;;1.87;;
466;SDS011;72290;48.808;9.222;2024-02-21T14:35:23;4.57;;;1.93;;
466;SDS011;72290;48.808;9.222;2024-02-21T14:37:49;3.23;;;1.90;;
466;SDS011;72290;48.808;9.222;2024-02-21T14:40:15;5.63;;;2.40;;
466;SDS011;72290;48.808;9.222;2024-02-21T14:42:40;3.27;;;2.10;;
466;SDS011;72290;48.808;9.222;2024-02-21T14:45:07;5.00;;;2.57;;
466;SDS011;72290;48.808;9.222;2024-02-21T14:47:33;4.70;;;2.93;;
466;SDS011;72290;48.808;9.222;2024-02-21T14:49:59;4.17;;;2.37;;
466;SDS011;72290;48.808;9.222;2024-02-21T14:52:25;9.60;;;2.93;;
466;SDS011;72290;48.808;9.222;2024-02-21T14:54:52;2.83;;;1.97;;
466;SDS011;72290;48.808;9.222;2024-02-21T14:57:18;11.27;;;2.83;;
466;SDS011;72290;48.808;9.222;2024-02-21T14:59:45;6.27;;;2.03;;
466;SDS011;72290;48.808;9.222;2024-02-21T15:02:12;5.40;;;3.27;;
466;SDS011;72290;48.808;9.222;2024-02-21T15:04:38;8.60;;;3.60;;
466;SDS011;72290;48.808;9.222;2024-02-21T15:07:04;11.57;;;4.37;;
466;SDS011;72290;48.808;9.222;2024-02-21T15:09:30;7.27;;;2.90;;
466;SDS011;72290;48.808;9.222;2024-02-21T15:11:56;15.90;;;3.57;;
466;SDS011;72290;48.808;9.222;2024-02-21T15:14:22;8.90;;;3.30;;
466;SDS011;72290;48.808;9.222;2024-02-21T15:16:48;5.97;;;2.33;;
466;SDS011;72290;48.808;9.222;2024-02-21T15:19:14;5.37;;;2.20;;
466;SDS011;72290;48.808;9.222;2024-02-21T15:21:40;4.10;;;1.93;;
466;SDS011;72290;48.808;9.222;2024-02-21T15:24:06;7.30;;;2.30;;
466;SDS011;72290;48.808;9.222;2024-02-21T15:26:32;9.93;;;2.37;;
466;SDS011;72290;48.808;9.222;2024-02-21T15:28:58;5.07;;;2.77;;
466;SDS011;72290;48.808;9.222;2024-02-21T15:31:24;4.37;;;2.53;;
466;SDS011;72290;48.808;9.222;2024-02-21T15:33:51;4.27;;;2.10;;
466;SDS011;72290;48.808;9.222;2024-02-21T15:36:17;6.60;;;2.37;;
466;SDS011;72290;48.808;9.222;2024-02-21T15:38:45;4.43;;;2.70;;
466;SDS011;72290;48.808;9.222;2024-02-21T15:41:11;3.53;;;2.00;;
466;SDS011;72290;48.808;9.222;2024-02-21T15:43:38;6.80;;;3.10;;
466;SDS011;72290;48.808;9.222;2024-02-21T15:46:04;6.43;;;2.60;;
466;SDS011;72290;48.808;9.222;2024-02-21T15:48:30;8.77;;;3.00;;
466;SDS011;72290;48.808;9.222;2024-02-21T15:50:59;5.03;;;2.57;;
466;SDS011;72290;48.808;9.222;2024-02-21T15:53:25;10.37;;;2.83;;
466;SDS011;72290;48.808;9.222;2024-02-21T15:55:51;6.13;;;2.33;;
466;SDS011;72290;48.808;9.222;2024-02-21T15:58:18;5.70;;;2.90;;
466;SDS011;72290;48.808;9.222;2024-02-21T16:00:47;5.77;;;2.40;;
466;SDS011;72290;48.808;9.222;2024-02-21T16:03:13;6.27;;;2.30;;
466;SDS011;72290;48.808;9.222;2024-02-21T16:05:41;5.50;;;2.67;;
466;SDS011;72290;48.808;9.222;2024-02-21T16:08:07;5.80;;;3.17;;
466;SDS011;72290;48.808;9.222;2024-02-21T16:10:33;8.50;;;2.80;;
466;SDS011;72290;48.808;9.222;2024-02-21T16:12:59;7.10;;;2.90;;
466;SDS011;72290;48.808;9.222;2024-02-21T16:15:25;8.37;;;2.87;;
466;SDS011;72290;48.808;9.222;2024-02-21T16:17:51;5.67;;;2.63;;
466;SDS011;72290;48.808;9.222;2024-02-21T16:20:17;5.07;;;2.33;;
466;SDS011;72290;48.808;9.222;2024-02-21T16:22:43;5.70;;;2.50;;
466;SDS011;72290;48.808;9.222;2024-02-21T16:25:10;5.13;;;3.00;;
466;SDS011;72290;48.808;9.222;2024-02-21T16:27:35;5.20;;;3.00;;
466;SDS011;72290;48.808;9.222;2024-02-21T16:30:03;3.30;;;2.03;;
466;SDS011;72290;48.808;9.222;2024-02-21T16:32:30;6.10;;;2.77;;
466;SDS011;72290;48.808;9.222;2024-02-21T16:34:57;24.33;;;3.37;;
466;SDS011;72290;48.808;9.222;2024-02-21T16:37:23;6.87;;;2.43;;
466;SDS011;72290;48.808;9.222;2024-02-21T16:39:49;5.33;;;3.33;;
466;SDS011;72290;48.808;9.222;2024-02-21T16:42:14;4.60;;;2.43;;
466;SDS011;72290;48.808;9.222;2024-02-21T16:44:40;12.03;;;3.83;;
466;SDS011;72290;48.808;9.222;2024-02-21T16:47:06;9.67;;;3.10;;
466;SDS011;72290;48.808;9.222;2024-02-21T16:49:33;8.83;;;2.33;;
466;SDS011;72290;48.808;9.222;2024-02-21T16:51:59;4.73;;;2.60;;
466;SDS011;72290;48.808;9.222;2024-02-21T16:54:25;7.07;;;3.03;;
466;SDS011;72290;48.808;9.222;2024-02-21T16:56:51;9.63;;;2.93;;
466;SDS011;72290;48.808;9.222;2024-02-21T16:59:17;5.60;;;2.90;;
466;SDS011;72290;48.808;9.222;2024-02-21T17:01:43;10.50;;;2.70;;
466;SDS011;72290;48.808;9.222;2024-02-21T17:04:10;11.90;;;3.43;;
466;SDS011;72290;48.808;9.222;2024-02-21T17:06:36;6.47;;;3.40;;
466;SDS011;72290;48.808;9.222;2024-02-21T17:09:02;8.97;;;2.87;;
466;SDS011;72290;48.808;9.222;2024-02-21T17:11:28;11.63;;;3.20;;
466;SDS011;72290;48.808;9.222;2024-02-21T17:13:54;9.90;;;3.20;;
466;SDS011;72290;48.808;9.222;2024-02-21T17:16:20;7.73;;;3.00;;
466;SDS011;72290;48.808;9.222;2024-02-21T17:18:46;11.30;;;4.20;;
466;SDS011;72290;48.808;9.222;2024-02-21T17:21:13;8.80;;;3.93;;
466;SDS011;72290;48.808;9.222;2024-02-21T17:23:39;15.03;;;3.60;;
466;SDS011;72290;48.808;9.222;2024-02-21T17:26:05;15.43;;;4.93;;
466;SDS011;72290;48.808;9.222;2024-02-21T17:28:31;10.10;;;4.20;;
466;SDS011;72290;48.808;9.222;2024-02-21T17:30:57;10.00;;;4.10;;
466;SDS011;72290;48.808;9.222;2024-02-21T17:33:23;12.97;;;4.37;;
466;SDS011;72290;48.808;9.222;2024-02-21T17:35:49;9.23;;;4.40;;
466;SDS011;72290;48.808;9.222;2024-02-21T17:38:16;9.23;;;4.07;;
466;SDS011;72290;48.808;9.222;2024-02-21T17:40:46;13.83;;;4.83;;
466;SDS011;72290;48.808;9.222;2024-02-21T17:43:14;13.87;;;5.37;;
466;SDS011;72290;48.808;9.222;2024-02-21T17:45:40;14.63;;;5.40;;
466;SDS011;72290;48.808;9.222;2024-02-21T17:48:06;12.90;;;4.27;;
466;SDS011;72290;48.808;9.222;2024-02-21T17:50:32;15.70;;;5.20;;
466;SDS011;72290;48.808;9.222;2024-02-21T17:52:58;8.60;;;4.53;;
466;SDS011;72290;48.808;9.222;2024-02-21T17:55:26;9.57;;;5.10;;
466;SDS011;72290;48.808;9.222;2024-02-21T17:57:52;13.90;;;4.70;;
466;SDS011;72290;48.808;9.222;2024-02-21T18:00:19;10.20;;;5.00;;
466;SDS011;72290;48.808;9.222;2024-02-21T18:02:46;8.93;;;4.53;;
466;SDS011;72290;48.808;9.222;2024-02-21T18:05:15;7.27;;;3.93;;
466;SDS011;72290;48.808;9.222;2024-02-21T18:07:41;13.27;;;4.40;;
466;SDS011;72290;48.808;9.222;2024-02-21T18:10:07;12.90;;;4.57;;
466;SDS011;72290;48.808;9.222;2024-02-21T18:12:33;13.13;;;5.10;;
466;SDS011;72290;48.808;9.222;2024-02-21T18:14:59;8.90;;;5.03;;
466;SDS011;72290;48.808;9.222;2024-02-21T18:17:26;15.50;;;4.70;;
466;SDS011;72290;48.808;9.222;2024-02-21T18:19:52;9.90;;;4.47;;
466;SDS011;72290;48.808;9.222;2024-02-21T18:22:17;12.77;;;4.90;;
466;SDS011;72290;48.808;9.222;2024-02-21T18:24:43;13.83;;;5.73;;
466;SDS011;72290;48.808;9.222;2024-02-21T18:27:09;13.07;;;5.63;;
466;SDS011;72290;48.808;9.222;2024-02-21T18:29:35;10.33;;;6.30;;
466;SDS011;72290;48.808;9.222;2024-02-21T18:32:02;12.07;;;6.07;;
466;SDS011;72290;48.808;9.222;2024-02-21T18:34:28;11.47;;;5.10;;
466;SDS011;72290;48.808;9.222;2024-02-21T18:36:54;10.97;;;4.87;;
466;SDS011;72290;48.808;9.222;2024-02-21T18:39:20;11.30;;;4.90;;
466;SDS011;72290;48.808;9.222;2024-02-21T18:41:48;11.83;;;4.83;;
466;SDS011;72290;48.808;9.222;2024-02-21T18:44:14;11.73;;;5.53;;
466;SDS011;72290;48.808;9.222;2024-02-21T18:46:40;14.50;;;5.83;;
466;SDS011;72290;48.808;9.222;2024-02-21T18:49:06;12.70;;;5.53;;
466;SDS011;72290;48.808;9.222;2024-02-21T18:51:32;12.60;;;5.93;;
466;SDS011;72290;48.808;9.222;2024-02-21T18:53:58;13.00;;;6.30;;
466;SDS011;72290;48.808;9.222;2024-02-21T18:56:24;17.80;;;6.53;;
466;SDS011;72290;48.808;9.222;2024-02-21T18:58:53;17.57;;;7.57;;
466;SDS011;72290;48.808;9.222;2024-02-21T19:01:19;18.90;;;7.30;;
466;SDS011;72290;48.808;9.222;2024-02-21T19:03:46;17.70;;;6.70;;
466;SDS011;72290;48.808;9.222;2024-02-21T19:06:12;15.67;;;6.00;;
466;SDS011;72290;48.808;9.222;2024-02-21T19:08:40;10.60;;;3.50;;
466;SDS011;72290;48.808;9.222;2024-02-21T19:11:06;12.87;;;4.87;;
466;SDS011;72290;48.808;9.222;2024-02-21T19:13:32;6.07;;;3.10;;
466;SDS011;72290;48.808;9.222;2024-02-21T19:15:58;11.53;;;4.57;;
466;SDS011;72290;48.808;9.222;2024-02-21T19:18:24;8.13;;;4.23;;
466;SDS011;72290;48.808;9.222;2024-02-21T19:20:50;4.90;;;3.10;;
466;SDS011;72290;48.808;9.222;2024-02-21T19:23:16;6.90;;;3.57;;
466;SDS011;72290;48.808;9.222;2024-02-21T19:25:42;10.93;;;4.43;;
466;SDS011;72290;48.808;9.222;2024-02-21T19:28:09;12.60;;;3.40;;
466;SDS011;72290;48.808;9.222;2024-02-21T19:30:40;6.23;;;3.23;;
466;SDS011;72290;48.808;9.222;2024-02-21T19:33:07;8.60;;;2.80;;
466;SDS011;72290;48.808;9.222;2024-02-21T19:35:34;4.07;;;2.27;;
466;SDS011;72290;48.808;9.222;2024-02-21T19:38:00;4.93;;;3.03;;
466;SDS011;72290;48.808;9.222;2024-02-21T19:40:29;9.63;;;3.70;;
466;SDS011;72290;48.808;9.222;2024-02-21T19:43:01;5.20;;;2.90;;
466;SDS011;72290;48.808;9.222;2024-02-21T19:45:27;4.50;;;2.87;;
466;SDS011;72290;48.808;9.222;2024-02-21T19:47:56;17.00;;;4.00;;
466;SDS011;72290;48.808;9.222;2024-02-21T19:50:23;9.23;;;3.70;;
466;SDS011;72290;48.808;9.222;2024-02-21T19:52:54;7.37;;;3.40;;
466;SDS011;72290;48.808;9.222;2024-02-21T19:55:21;5.00;;;2.83;;
466;SDS011;72290;48.808;9.222;2024-02-21T19:57:47;4.93;;;2.70;;
466;SDS011;72290;48.808;9.222;2024-02-21T20:00:13;13.20;;;4.03;;
466;SDS011;72290;48.808;9.222;2024-02-21T20:02:39;8.87;;;4.00;;
466;SDS011;72290;48.808;9.222;2024-02-21T20:05:08;11.10;;;5.30;;
466;SDS011;72290;48.808;9.222;2024-02-21T20:07:35;11.00;;;4.37;;
466;SDS011;72290;48.808;9.222;2024-02-21T20:10:01;7.63;;;3.70;;
466;SDS011;72290;48.808;9.222;2024-02-21T20:12:32;7.70;;;3.67;;
466;SDS011;72290;48.808;9.222;2024-02-21T20:14:58;6.70;;;2.87;;
466;SDS011;72290;48.808;9.222;2024-02-21T20:17:25;4.07;;;2.70;;
466;SDS011;72290;48.808;9.222;2024-02-21T20:19:51;4.57;;;2.50;;
466;SDS011;72290;48.808;9.222;2024-02-21T20:22:17;4.53;;;2.40;;
466;SDS011;72290;48.808;9.222;2024-02-21T20:24:43;3.70;;;2.33;;
466;SDS011;72290;48.808;9.222;2024-02-21T20:27:09;4.67;;;2.47;;
466;SDS011;72290;48.808;9.222;2024-02-21T20:29:37;4.23;;;2.43;;
466;SDS011;72290;48.808;9.222;2024-02-21T20:32:03;7.30;;;2.63;;
466;SDS011;72290;48.808;9.222;2024-02-21T20:34:29;5.57;;;3.50;;
466;SDS011;72290;48.808;9.222;2024-02-21T20:36:56;8.63;;;2.70;;
466;SDS011;72290;48.808;9.222;2024-02-21T20:39:22;7.30;;;2.70;;
466;SDS011;72290;48.808;9.222;2024-02-21T20:41:48;9.23;;;3.70;;
466;SDS011;72290;48.808;9.222;2024-02-21T20:44:14;4.20;;;3.00;;
466;SDS011;72290;48.808;9.222;2024-02-21T20:46:40;4.63;;;2.90;;
466;SDS011;72290;48.808;9.222;2024-02-21T20:49:06;5.77;;;3.17;;
466;SDS011;72290;48.808;9.222;2024-02-21T20:51:32;11.53;;;5.37;;
466;SDS011;72290;48.808;9.222;2024-02-21T20:53:58;8.83;;;3.57;;
466;SDS011;72290;48.808;9.222;2024-02-21T20:56:24;4.53;;;3.00;;
466;SDS011;72290;48.808;9.222;2024-02-21T20:58:50;7.83;;;2.63;;
466;SDS011;72290;48.808;9.222;2024-02-21T21:01:16;7.47;;;3.40;;
466;SDS011;72290;48.808;9.222;2024-02-21T21:03:43;3.20;;;2.30;;
466;SDS011;72290;48.808;9.222;2024-02-21T21:06:09;3.70;;;2.47;;
466;SDS011;72290;48.808;9.222;2024-02-21T21:08:36;5.73;;;3.50;;